createdAt,value
2023-02-11T00:01:23.830Z,33.50
2023-02-11T00:03:54.438Z,38.70
2023-02-11T00:06:25.883Z,39.70
2023-02-11T00:08:56.610Z,39.40
2023-02-11T00:11:30.276Z,40.30
2023-02-11T00:14:02.850Z,40.90
2023-02-11T00:16:33.486Z,43.20
2023-02-11T00:19:05.579Z,50.60
2023-02-11T00:21:36.476Z,50.20
2023-02-11T00:24:07.582Z,41.70
2023-02-11T00:26:38.526Z,42.00
2023-02-11T00:29:12.352Z,43.20
2023-02-11T00:31:44.181Z,45.40
2023-02-11T00:34:14.613Z,33.80
2023-02-11T00:36:50.922Z,41.90
2023-02-11T00:39:21.823Z,52.10
2023-02-11T00:41:52.199Z,52.00
2023-02-11T00:44:22.556Z,47.00
2023-02-11T00:46:52.921Z,41.80
2023-02-11T00:49:23.257Z,41.50
2023-02-11T00:51:53.918Z,41.20
2023-02-11T00:54:24.278Z,44.60
2023-02-11T00:56:54.674Z,44.00
2023-02-11T00:59:25.014Z,42.80
2023-02-11T01:01:55.404Z,48.20
2023-02-11T01:04:25.782Z,44.20
2023-02-11T01:06:56.218Z,46.10
2023-02-11T01:11:58.027Z,51.90
2023-02-11T01:14:28.761Z,45.20
2023-02-11T01:16:59.103Z,49.10
2023-02-11T01:19:29.457Z,55.90
2023-02-11T01:21:59.909Z,59.80
2023-02-11T01:24:30.249Z,51.00
2023-02-11T01:27:00.668Z,49.60
2023-02-11T01:29:31.018Z,42.10
2023-02-11T01:32:02.312Z,50.70
2023-02-11T01:34:32.825Z,49.40
2023-02-11T01:37:03.389Z,47.90
2023-02-11T01:39:35.462Z,48.90
2023-02-11T01:42:06.776Z,61.60
2023-02-11T01:44:39.996Z,55.30
2023-02-11T01:47:10.552Z,47.90
2023-02-11T01:49:42.737Z,44.40
2023-02-11T01:52:15.603Z,50.00
2023-02-11T01:55:05.100Z,42.80
2023-02-11T01:57:38.395Z,45.30
2023-02-11T02:00:13.043Z,50.60
2023-02-11T02:02:50.140Z,65.20
2023-02-11T02:05:25.704Z,74.20
2023-02-11T02:08:00.046Z,66.50
2023-02-11T02:10:31.524Z,55.60
2023-02-11T02:13:01.996Z,53.40
2023-02-11T02:15:35.186Z,51.60
2023-02-11T02:18:14.216Z,55.60
2023-02-11T02:21:12.369Z,57.70
2023-02-11T02:24:01.574Z,60.30
2023-02-11T02:26:57.399Z,57.70
2023-02-11T02:30:25.226Z,51.70
2023-02-11T02:33:20.328Z,49.20
2023-02-11T02:35:57.687Z,48.20
2023-02-11T02:38:31.688Z,50.30
2023-02-11T02:41:04.382Z,63.50
2023-02-11T02:43:36.812Z,65.90
2023-02-11T02:46:15.135Z,64.00
2023-02-11T02:48:46.103Z,50.30
2023-02-11T02:51:30.813Z,53.40
2023-02-11T02:54:18.066Z,58.00
2023-02-11T02:56:51.357Z,56.10
2023-02-11T02:59:41.770Z,53.50
2023-02-11T03:02:17.287Z,62.60
2023-02-11T03:04:53.917Z,62.60
2023-02-11T03:07:28.889Z,62.30
2023-02-11T03:10:03.574Z,51.20
2023-02-11T03:12:35.573Z,50.30
2023-02-11T03:15:09.153Z,51.60
2023-02-11T03:17:42.005Z,55.10
2023-02-11T03:20:14.824Z,51.10
2023-02-11T03:22:50.805Z,58.30
2023-02-11T03:25:21.697Z,63.00
2023-02-11T03:27:55.400Z,57.80
2023-02-11T03:30:29.818Z,59.10
2023-02-11T03:33:02.311Z,54.70
2023-02-11T03:35:37.028Z,56.40
2023-02-11T03:38:10.400Z,57.90
2023-02-11T03:40:41.828Z,57.20
2023-02-11T03:43:17.114Z,36.40
2023-02-11T03:45:48.761Z,64.60
2023-02-11T03:48:23.840Z,54.10
2023-02-11T03:50:55.118Z,58.20
2023-02-11T03:53:25.552Z,53.90
2023-02-11T03:55:57.707Z,56.70
2023-02-11T03:58:28.343Z,57.70
2023-02-11T04:00:58.685Z,66.10
2023-02-11T04:03:29.031Z,67.20
2023-02-11T04:05:59.426Z,64.20
2023-02-11T04:08:29.998Z,55.10
2023-02-11T04:11:00.460Z,49.90
2023-02-11T04:13:30.793Z,57.20
2023-02-11T04:16:01.165Z,57.40
2023-02-11T04:18:31.514Z,51.60
2023-02-11T04:21:01.855Z,68.00
2023-02-11T04:23:32.148Z,65.00
2023-02-11T04:26:02.486Z,56.90
2023-02-11T04:28:32.896Z,55.90
2023-02-11T04:31:03.398Z,58.00
2023-02-11T04:33:33.869Z,55.10
2023-02-11T04:36:04.335Z,53.70
2023-02-11T04:38:34.626Z,54.30
2023-02-11T04:41:04.979Z,60.20
2023-02-11T04:43:35.255Z,62.60
2023-02-11T04:46:05.827Z,66.90
2023-02-11T04:48:36.363Z,57.30
2023-02-11T04:51:07.094Z,60.40
2023-02-11T04:53:37.400Z,55.60
2023-02-11T04:56:08.471Z,52.00
2023-02-11T04:58:38.880Z,43.80
2023-02-11T05:01:10.519Z,71.20
2023-02-11T05:03:41.216Z,59.10
2023-02-11T05:06:12.469Z,62.50
2023-02-11T05:08:42.971Z,59.30
2023-02-11T05:11:17.966Z,57.90
2023-02-11T05:13:48.558Z,56.50
2023-02-11T05:16:19.385Z,66.70
2023-02-11T05:18:52.577Z,73.10
2023-02-11T05:21:23.099Z,61.20
2023-02-11T05:23:53.522Z,51.60
2023-02-11T05:26:23.943Z,57.80
2023-02-11T05:28:54.232Z,58.20
2023-02-11T05:31:24.551Z,62.40
2023-02-11T05:33:54.901Z,66.90
2023-02-11T05:36:25.253Z,59.60
2023-02-11T05:38:55.539Z,58.50
2023-02-11T05:41:25.874Z,58.00
2023-02-11T05:43:56.166Z,61.30
2023-02-11T05:46:26.504Z,63.20
2023-02-11T05:48:57.376Z,64.90
2023-02-11T05:51:27.789Z,52.60
2023-02-11T05:53:58.809Z,57.00
2023-02-11T05:56:29.206Z,61.10
2023-02-11T05:59:00.868Z,64.40
2023-02-11T06:01:31.175Z,67.40
2023-02-11T06:04:01.603Z,67.80
2023-02-11T06:06:32.053Z,54.30
2023-02-11T06:09:02.450Z,52.80
2023-02-11T06:11:32.815Z,52.40
2023-02-11T06:14:03.500Z,57.00
2023-02-11T06:16:34.840Z,59.20
2023-02-11T06:19:05.269Z,74.30
2023-02-11T06:21:43.429Z,64.30
2023-02-11T06:24:14.328Z,57.40
2023-02-11T06:26:44.622Z,55.30
2023-02-11T06:29:14.937Z,52.40
2023-02-11T06:31:45.694Z,51.10
2023-02-11T06:34:16.137Z,58.70
2023-02-11T06:36:46.454Z,63.80
2023-02-11T06:39:16.990Z,73.50
2023-02-11T06:41:47.345Z,78.00
2023-02-11T06:44:17.650Z,62.00
2023-02-11T06:46:48.167Z,64.10
2023-02-11T06:49:18.599Z,58.80
2023-02-11T06:51:49.292Z,55.00
2023-02-11T06:54:19.808Z,57.40
2023-02-11T06:56:50.143Z,71.10
2023-02-11T06:59:21.198Z,76.30
2023-02-11T07:01:51.630Z,61.00
2023-02-11T07:04:22.652Z,58.80
2023-02-11T07:06:52.964Z,47.40
2023-02-11T07:09:23.320Z,38.10
2023-02-11T07:11:53.640Z,65.10
2023-02-11T07:14:23.927Z,76.10
2023-02-11T07:16:54.320Z,68.50
2023-02-11T07:19:24.706Z,57.00
2023-02-11T07:21:55.204Z,51.50
2023-02-11T07:24:25.829Z,45.00
2023-02-11T07:26:56.845Z,38.10
2023-02-11T07:29:27.351Z,64.30
2023-02-11T07:31:57.703Z,56.50
2023-02-11T07:34:28.080Z,65.50
2023-02-11T07:36:58.584Z,46.90
2023-02-11T07:39:29.451Z,55.80
2023-02-11T07:42:00.243Z,56.00
2023-02-11T07:44:30.898Z,50.60
2023-02-11T07:47:01.426Z,54.00
2023-02-11T07:49:32.230Z,55.70
2023-02-11T07:52:02.547Z,51.10
2023-02-11T07:54:32.892Z,46.00
2023-02-11T07:57:03.221Z,49.30
2023-02-11T07:59:33.692Z,53.50
2023-02-11T08:02:04.214Z,51.00
2023-02-11T08:04:35.161Z,51.70
2023-02-11T08:07:05.522Z,51.40
2023-02-11T08:09:36.478Z,51.70
2023-02-11T08:12:07.417Z,51.20
2023-02-11T08:14:37.933Z,56.80
2023-02-11T08:17:08.206Z,53.70
2023-02-11T08:19:39.592Z,52.60
2023-02-11T08:22:09.949Z,45.60
2023-02-11T08:24:41.099Z,47.50
2023-02-11T08:27:11.389Z,45.40
2023-02-11T08:29:41.803Z,53.10
2023-02-11T08:32:12.175Z,45.60
2023-02-11T08:34:44.165Z,51.10
2023-02-11T08:37:16.414Z,50.30
2023-02-11T08:39:49.153Z,45.30
2023-02-11T08:42:20.987Z,54.70
2023-02-11T08:44:52.084Z,49.00
2023-02-11T08:47:24.457Z,40.20
2023-02-11T08:49:56.190Z,47.80
2023-02-11T08:52:28.471Z,53.60
2023-02-11T08:55:00.180Z,52.00
2023-02-11T08:57:32.494Z,52.10
2023-02-11T09:00:05.287Z,48.30
2023-02-11T09:02:37.534Z,49.30
2023-02-11T09:05:10.339Z,49.50
2023-02-11T09:07:41.830Z,50.80
2023-02-11T09:10:14.209Z,50.70
2023-02-11T09:12:46.517Z,52.70
2023-02-11T09:15:18.233Z,53.40
2023-02-11T09:17:50.304Z,50.90
2023-02-11T09:20:23.322Z,49.60
2023-02-11T09:22:56.300Z,47.20
2023-02-11T09:28:01.320Z,47.60
2023-02-11T09:30:33.849Z,47.40
2023-02-11T09:33:05.262Z,51.90
2023-02-11T09:42:50.828Z,50.60
2023-02-11T09:45:23.470Z,47.00
2023-02-11T09:47:57.392Z,47.80
2023-02-11T09:50:31.351Z,50.60
2023-02-11T09:53:04.555Z,50.00
2023-02-11T09:55:38.018Z,47.10
2023-02-11T09:58:14.720Z,46.80
2023-02-11T10:00:48.341Z,48.20
2023-02-11T10:03:43.498Z,46.40
2023-02-11T10:06:23.188Z,48.30
2023-02-11T10:09:03.079Z,40.50
2023-02-11T10:11:38.138Z,50.70
2023-02-11T10:14:19.629Z,48.40
2023-02-11T10:17:00.000Z,49.90
2023-02-11T10:19:39.967Z,50.50
2023-02-11T10:22:16.605Z,44.00
2023-02-11T10:24:53.585Z,50.40
2023-02-11T10:27:28.549Z,50.70
2023-02-11T10:30:03.592Z,48.70
2023-02-11T10:32:39.688Z,46.50
2023-02-11T10:35:17.978Z,45.80
2023-02-11T10:37:48.632Z,46.50
2023-02-11T10:40:20.452Z,46.50
2023-02-11T10:42:55.406Z,47.10
2023-02-11T10:45:34.429Z,42.60
2023-02-11T10:48:07.082Z,49.70
2023-02-11T10:50:37.994Z,42.90
2023-02-11T10:53:20.942Z,45.30
2023-02-11T10:55:57.209Z,44.40
2023-02-11T10:58:29.444Z,43.40
2023-02-11T11:01:01.093Z,43.00
2023-02-11T11:03:35.228Z,45.40
2023-02-11T11:06:08.706Z,46.00
2023-02-11T11:08:44.876Z,46.40
2023-02-11T11:11:16.814Z,43.40
2023-02-11T11:13:59.122Z,45.10
2023-02-11T11:16:30.222Z,48.80
2023-02-11T11:19:21.296Z,43.20
2023-02-11T11:21:53.095Z,48.80
2023-02-11T11:24:27.656Z,45.90
2023-02-11T11:27:00.879Z,43.50
2023-02-11T11:29:34.068Z,42.40
2023-02-11T11:32:06.486Z,41.20
2023-02-11T11:34:40.482Z,42.60
2023-02-11T11:37:19.282Z,45.90
2023-02-11T11:39:56.924Z,45.50
2023-02-11T11:42:31.623Z,46.70
2023-02-11T11:45:04.619Z,45.80
2023-02-11T11:50:28.072Z,46.10
2023-02-11T11:53:04.136Z,48.40
2023-02-11T11:55:37.550Z,46.20
2023-02-11T11:58:08.187Z,41.60
2023-02-11T12:00:44.912Z,46.60
2023-02-11T12:04:01.353Z,39.90
2023-02-11T12:06:41.077Z,44.10
2023-02-11T12:09:20.695Z,49.80
2023-02-11T12:12:01.573Z,48.20
2023-02-11T12:14:39.740Z,42.90
2023-02-11T12:17:15.957Z,41.50
2023-02-11T12:19:57.763Z,42.80
2023-02-11T12:22:40.623Z,43.20
2023-02-11T12:25:27.161Z,45.70
2023-02-11T12:28:17.890Z,42.60
2023-02-11T12:30:58.377Z,47.70
2023-02-11T12:33:39.287Z,39.10
2023-02-11T12:36:13.731Z,44.40
2023-02-11T12:38:55.836Z,42.80
2023-02-11T12:41:54.971Z,43.80
2023-02-11T12:44:33.977Z,40.50
2023-02-11T12:47:15.535Z,48.70
2023-02-11T12:50:00.832Z,43.10
2023-02-11T12:52:43.543Z,39.10
2023-02-11T12:55:20.598Z,38.50
2023-02-11T12:57:52.532Z,40.90
2023-02-11T13:00:25.846Z,45.70
2023-02-11T13:03:03.240Z,42.20
2023-02-11T13:05:40.692Z,40.10
2023-02-11T13:08:14.250Z,39.00
2023-02-11T13:10:47.217Z,38.80
2023-02-11T13:15:53.318Z,40.50
2023-02-11T13:18:33.635Z,41.30
2023-02-11T13:21:20.797Z,40.00
2023-02-11T13:23:56.684Z,41.60
2023-02-11T13:26:30.845Z,43.90
2023-02-11T13:29:14.213Z,39.30
2023-02-11T13:31:44.713Z,36.50
2023-02-11T13:34:28.703Z,42.40
2023-02-11T13:36:59.645Z,45.90
2023-02-11T13:39:30.211Z,37.40
2023-02-11T13:42:06.412Z,34.80
2023-02-11T13:44:37.622Z,37.80
2023-02-11T13:47:08.346Z,39.80
2023-02-11T13:49:41.480Z,38.30
2023-02-11T13:52:25.905Z,37.10
2023-02-11T13:54:58.503Z,31.80
2023-02-11T13:57:37.924Z,37.40
2023-02-11T14:00:41.466Z,34.10
2023-02-11T14:03:53.752Z,37.90
2023-02-11T14:06:44.640Z,35.40
2023-02-11T14:09:39.315Z,39.80
2023-02-11T14:12:34.310Z,36.10
2023-02-11T14:15:24.086Z,34.20
2023-02-11T14:17:55.769Z,40.40
2023-02-11T14:20:38.163Z,37.00
2023-02-11T14:23:17.788Z,34.00
2023-02-11T14:25:56.784Z,36.00
2023-02-11T14:28:32.910Z,33.20
2023-02-11T14:31:07.334Z,35.20
2023-02-11T14:33:55.133Z,34.40
2023-02-11T14:36:46.408Z,35.80
2023-02-11T14:39:23.141Z,31.40
2023-02-11T14:41:53.580Z,37.40
2023-02-11T14:44:25.791Z,36.00
2023-02-11T14:46:57.040Z,33.70
2023-02-11T14:49:30.874Z,34.20
2023-02-11T14:52:07.653Z,31.60
2023-02-11T14:54:38.279Z,36.20
2023-02-11T14:57:17.041Z,31.20
2023-02-11T14:59:58.958Z,31.40
2023-02-11T15:02:33.646Z,33.10
2023-02-11T15:05:26.042Z,28.30
2023-02-11T15:07:58.130Z,33.00
2023-02-11T15:10:34.203Z,30.00
2023-02-11T15:13:05.150Z,30.90
2023-02-11T15:15:42.250Z,35.50
2023-02-11T15:18:21.368Z,30.50
2023-02-11T15:20:53.257Z,32.10
2023-02-11T15:23:26.137Z,33.30
2023-02-11T15:25:56.613Z,34.40
2023-02-11T15:28:30.408Z,35.00
2023-02-11T15:31:03.874Z,32.20
2023-02-11T15:33:34.929Z,31.80
2023-02-11T15:36:06.154Z,28.60
2023-02-11T15:38:36.576Z,30.90
2023-02-11T15:41:08.110Z,31.60
2023-02-11T15:43:46.445Z,28.00
2023-02-11T15:46:19.719Z,32.00
2023-02-11T15:48:51.975Z,29.90
2023-02-11T15:51:25.244Z,29.20
2023-02-11T15:53:58.832Z,28.50
2023-02-11T15:56:33.072Z,30.80
2023-02-11T15:59:14.017Z,30.10
2023-02-11T16:01:45.400Z,30.90
2023-02-11T16:04:20.702Z,25.10
2023-02-11T16:06:51.907Z,26.00
2023-02-11T16:09:34.321Z,28.90
2023-02-11T16:12:18.930Z,27.20
2023-02-11T16:14:49.293Z,26.00
2023-02-11T16:17:27.469Z,24.20
2023-02-11T16:19:58.482Z,25.10
2023-02-11T16:22:35.338Z,24.10
2023-02-11T16:25:07.169Z,23.00
2023-02-11T16:27:40.823Z,24.60
2023-02-11T16:30:27.711Z,24.90
2023-02-11T16:32:58.094Z,24.30
2023-02-11T16:35:28.666Z,24.40
2023-02-11T16:37:58.982Z,23.70
2023-02-11T16:40:29.501Z,21.20
2023-02-11T16:42:59.825Z,24.20
2023-02-11T16:45:30.290Z,22.90
2023-02-11T16:48:00.661Z,22.80
2023-02-11T16:50:31.063Z,24.90
2023-02-11T16:53:02.152Z,20.80
2023-02-11T16:55:32.738Z,22.30
2023-02-11T16:58:03.161Z,22.10
2023-02-11T17:00:33.516Z,24.10
2023-02-11T17:03:04.096Z,22.40
2023-02-11T17:05:49.327Z,28.10
2023-02-11T17:08:25.100Z,24.70
2023-02-11T17:10:55.563Z,20.80
2023-02-11T17:13:26.168Z,21.80
2023-02-11T17:15:56.873Z,22.40
2023-02-11T17:18:27.254Z,23.80
2023-02-11T17:20:57.593Z,23.50
2023-02-11T17:23:27.898Z,21.60
2023-02-11T17:25:59.313Z,23.90
2023-02-11T17:28:29.716Z,22.80
2023-02-11T17:31:00.217Z,24.80
2023-02-11T17:33:30.551Z,21.20
2023-02-11T17:36:00.842Z,23.40
2023-02-11T17:38:31.167Z,22.70
2023-02-11T17:41:02.465Z,18.10
2023-02-11T17:43:33.178Z,24.30
2023-02-11T17:46:03.596Z,25.30
2023-02-11T17:48:34.065Z,25.40
2023-02-11T17:51:04.636Z,24.60
2023-02-11T17:53:34.971Z,22.00
2023-02-11T17:56:07.230Z,22.70
2023-02-11T17:58:37.672Z,21.10
2023-02-11T18:01:08.353Z,24.50
2023-02-11T18:03:39.083Z,22.20
2023-02-11T18:06:10.067Z,18.60
2023-02-11T18:08:41.728Z,25.30
2023-02-11T18:11:14.985Z,26.20
2023-02-11T18:13:51.304Z,29.40
2023-02-11T18:16:21.655Z,26.60
2023-02-11T18:18:52.414Z,26.80
2023-02-11T18:21:28.676Z,29.10
2023-02-11T18:24:06.422Z,30.50
2023-02-11T18:26:38.408Z,30.20
2023-02-11T18:29:09.996Z,26.60
2023-02-11T18:31:42.092Z,27.80
2023-02-11T18:34:14.444Z,27.00
2023-02-11T18:36:45.405Z,26.60
2023-02-11T18:39:18.842Z,28.80
2023-02-11T18:41:50.927Z,33.50
2023-02-11T18:44:23.227Z,33.30
2023-02-11T18:46:54.264Z,31.70
2023-02-11T18:49:24.632Z,31.20
2023-02-11T18:51:55.262Z,31.60
2023-02-11T18:54:25.781Z,34.10
2023-02-11T18:56:56.102Z,30.00
2023-02-11T18:59:26.580Z,31.30
2023-02-11T19:01:57.916Z,32.40
2023-02-11T19:04:28.409Z,34.50
2023-02-11T19:07:03.081Z,32.90
2023-02-11T19:09:33.612Z,35.10
2023-02-11T19:12:04.629Z,32.60
2023-02-11T19:14:35.596Z,36.80
2023-02-11T19:17:07.560Z,34.00
2023-02-11T19:19:38.311Z,37.10
2023-02-11T19:22:10.573Z,33.80
2023-02-11T19:24:41.220Z,39.60
2023-02-11T19:27:12.354Z,38.20
2023-02-11T19:29:42.743Z,35.30
2023-02-11T19:32:13.488Z,36.80
2023-02-11T19:34:43.844Z,36.80
2023-02-11T19:37:14.810Z,38.20
2023-02-11T19:39:45.908Z,35.90
2023-02-11T19:42:16.259Z,38.90
2023-02-11T19:44:46.995Z,39.20
2023-02-11T19:47:17.843Z,32.90
2023-02-11T19:49:48.576Z,33.10
2023-02-11T19:52:18.931Z,35.80
2023-02-11T19:54:49.287Z,33.20
2023-02-11T19:57:19.625Z,34.00
2023-02-11T19:59:50.933Z,30.50
2023-02-11T20:02:21.288Z,30.60
2023-02-11T20:04:51.735Z,39.70
2023-02-11T20:07:22.124Z,34.10
2023-02-11T20:09:53.925Z,34.80
2023-02-11T20:12:24.544Z,37.00
2023-02-11T20:14:54.905Z,33.70
2023-02-11T20:17:25.354Z,40.80
2023-02-11T20:19:55.845Z,34.00
2023-02-11T20:22:26.304Z,36.60
2023-02-11T20:24:57.050Z,39.80
2023-02-11T20:27:29.189Z,33.10
2023-02-11T20:29:59.557Z,34.60
2023-02-11T20:32:32.817Z,38.50
2023-02-11T20:35:03.513Z,41.00
2023-02-11T20:37:33.992Z,39.10
2023-02-11T20:40:04.873Z,38.70
2023-02-11T20:42:35.603Z,36.80
2023-02-11T20:45:06.607Z,39.20
2023-02-11T20:47:37.070Z,42.20
2023-02-11T20:50:09.440Z,41.00
2023-02-11T20:52:40.116Z,44.30
2023-02-11T20:55:10.949Z,44.90
2023-02-11T20:57:41.373Z,44.70
2023-02-11T21:00:13.958Z,39.70
2023-02-11T21:02:44.589Z,39.20
2023-02-11T21:05:15.560Z,44.20
2023-02-11T21:07:46.317Z,42.10
2023-02-11T21:10:17.916Z,44.50
2023-02-11T21:12:49.919Z,46.20
2023-02-11T21:15:23.211Z,41.00
2023-02-11T21:17:53.755Z,41.60
2023-02-11T21:20:24.205Z,40.60
2023-02-11T21:22:54.585Z,41.00
2023-02-11T21:25:24.982Z,47.90
2023-02-11T21:27:55.596Z,50.60
2023-02-11T21:30:29.100Z,44.30
2023-02-11T21:33:03.172Z,40.50
2023-02-11T21:35:35.778Z,31.30
2023-02-11T21:38:07.110Z,34.40
2023-02-11T21:40:37.620Z,35.50
2023-02-11T21:43:08.335Z,38.40
2023-02-11T21:45:45.234Z,32.70
2023-02-11T21:48:16.745Z,35.70
2023-02-11T21:50:48.234Z,29.90
2023-02-11T21:53:18.757Z,32.40
2023-02-11T21:55:51.335Z,30.70
2023-02-11T21:58:21.821Z,29.40
2023-02-11T22:00:52.311Z,34.70
2023-02-11T22:03:22.726Z,35.10
2023-02-11T22:05:53.458Z,30.80
2023-02-11T22:08:24.081Z,30.90
2023-02-11T22:10:54.603Z,33.20
2023-02-11T22:13:24.937Z,27.70
2023-02-11T22:16:01.335Z,31.60
2023-02-11T22:18:32.429Z,31.30
2023-02-11T22:21:05.010Z,28.90
2023-02-11T22:23:36.244Z,33.20
2023-02-11T22:26:08.722Z,31.00
2023-02-11T22:28:40.571Z,33.10
2023-02-11T22:31:14.341Z,35.80
2023-02-11T22:33:45.059Z,30.70
2023-02-11T22:36:17.978Z,33.80
2023-02-11T22:38:48.597Z,31.20
2023-02-11T22:41:19.817Z,32.80
2023-02-11T22:43:50.652Z,33.30
2023-02-11T22:46:22.004Z,31.30
2023-02-11T22:48:52.666Z,28.50
2023-02-11T22:51:24.725Z,32.20
2023-02-11T22:53:56.925Z,35.80
2023-02-11T22:56:28.233Z,32.00
2023-02-11T22:59:00.866Z,33.50
2023-02-11T23:01:32.315Z,31.00
2023-02-11T23:04:03.897Z,31.30
2023-02-11T23:06:34.764Z,32.40
2023-02-11T23:09:06.474Z,33.40
2023-02-11T23:11:37.266Z,32.60
2023-02-11T23:14:08.574Z,25.40
2023-02-11T23:16:39.096Z,32.40
2023-02-11T23:19:12.326Z,34.00
2023-02-11T23:21:42.679Z,31.00
2023-02-11T23:24:15.432Z,27.90
2023-02-11T23:26:46.231Z,30.30
2023-02-11T23:29:16.623Z,33.30
2023-02-11T23:31:47.654Z,31.40
2023-02-11T23:34:20.331Z,30.90
2023-02-11T23:36:50.674Z,26.60
2023-02-11T23:39:21.066Z,41.80
2023-02-11T23:41:58.827Z,43.80
2023-02-11T23:44:29.780Z,40.70
2023-02-11T23:47:00.120Z,45.00
2023-02-11T23:49:30.463Z,39.10
2023-02-11T23:52:00.828Z,38.80
2023-02-11T23:54:31.247Z,42.30
2023-02-11T23:57:01.614Z,40.20
2023-02-11T23:59:31.955Z,41.90
